Time;durP1;ratioP1;P1;durP2;ratioP2;P2;SDS_P1;SDS_P2;PMS_P1;PMS_P2;Temp;Humidity;BMP_temperature;BMP_pressure;BME280_temperature;BME280_humidity;BME280_pressure;Samples;Min_cycle;Max_cycle;Signal;HPM_P1;HPM_P2
2023/04/14 00:00:09;;;;;;;305.70;128.25;;;;;;;13.84;62.92;98706.59;329395;29;4445;-74
2023/04/14 00:00:19;;;;;;;305.10;127.28;;;;;;;13.76;63.36;98698.41;327225;29;4029;-74
2023/04/14 00:00:32;;;;;;;304.58;127.50;;;;;;;13.75;63.20;98702.81;324565;30;2970;-74
2023/04/14 00:00:43;;;;;;;305.83;128.95;;;;;;;13.79;63.75;98703.44;321608;30;4743;-74
2023/04/14 00:00:53;;;;;;;306.08;126.88;;;;;;;13.81;63.31;98701.56;323489;30;2422;-74
2023/04/14 00:01:04;;;;;;;308.33;129.43;;;;;;;13.82;63.48;98705.88;320010;30;4009;-73
2023/04/14 00:01:15;;;;;;;309.05;128.38;;;;;;;13.74;63.53;98700.28;320728;30;1888;-73
2023/04/14 00:01:26;;;;;;;308.48;128.73;;;;;;;13.72;63.66;98703.03;321137;30;2792;-73
2023/04/14 00:01:36;;;;;;;305.23;125.93;;;;;;;13.75;63.62;98699.34;323279;30;1296;-74
2023/04/14 00:01:47;;;;;;;305.87;127.90;;;;;;;13.78;63.49;98701.75;322754;30;1945;-74
2023/04/14 00:01:58;;;;;;;305.05;126.63;;;;;;;13.72;63.80;98699.56;320957;30;2632;-73
2023/04/14 00:02:08;;;;;;;305.48;125.32;;;;;;;13.72;63.74;98696.91;323285;30;908;-73
2023/04/14 00:02:19;;;;;;;304.50;124.27;;;;;;;13.65;63.68;98702.59;321600;30;2928;-73
2023/04/14 00:02:30;;;;;;;304.73;123.65;;;;;;;13.67;63.97;98704.28;323340;30;2997;-73
2023/04/14 00:02:40;;;;;;;307.80;127.57;;;;;;;13.70;63.99;98701.44;325400;30;1256;-73
2023/04/14 00:02:51;;;;;;;324.53;133.90;;;;;;;13.68;63.86;98698.91;315937;31;1238;-73
2023/04/14 00:03:01;;;;;;;328.40;133.52;;;;;;;13.63;63.75;98699.22;318225;30;3634;-73
2023/04/14 00:03:12;;;;;;;319.92;129.65;;;;;;;13.65;63.94;98702.59;321762;30;3446;-73
2023/04/14 00:03:22;;;;;;;304.97;125.07;;;;;;;13.62;64.00;98705.44;323426;30;1311;-73
2023/04/14 00:03:32;;;;;;;303.37;126.47;;;;;;;13.53;64.16;98708.69;321455;30;2548;-73
2023/04/14 00:03:43;;;;;;;305.80;127.97;;;;;;;13.56;64.32;98697.97;321540;30;2392;-73
2023/04/14 00:03:53;;;;;;;305.10;126.10;;;;;;;13.55;64.47;98705.94;318377;30;1973;-73
2023/04/14 00:04:04;;;;;;;306.80;126.13;;;;;;;13.47;64.50;98708.25;314479;31;3129;-73
2023/04/14 00:04:15;;;;;;;307.07;124.47;;;;;;;13.37;64.99;98708.03;314475;31;3477;-73
2023/04/14 00:04:26;;;;;;;308.50;123.53;;;;;;;13.32;65.16;98710.13;313879;31;1192;-73
2023/04/14 00:04:36;;;;;;;307.20;122.40;;;;;;;13.28;65.50;98708.66;309530;31;867;-73
2023/04/14 00:04:53;;;;;;;304.97;123.00;;;;;;;13.28;65.30;98713.91;307083;31;4267;-73
2023/04/14 00:05:04;;;;;;;303.35;123.78;;;;;;;13.26;65.87;98718.41;306524;31;4344;-73
2023/04/14 00:05:14;;;;;;;304.10;123.77;;;;;;;13.30;65.33;98712.03;306857;31;4777;-73
2023/04/14 00:05:31;;;;;;;305.83;123.93;;;;;;;13.36;65.41;98711.63;304485;32;1235;-73
2023/04/14 00:05:41;;;;;;;308.48;124.40;;;;;;;13.34;65.34;98713.50;303513;32;3621;-73
2023/04/14 00:05:52;;;;;;;306.83;125.13;;;;;;;13.37;65.51;98715.94;305050;32;1260;-73
2023/04/14 00:06:02;;;;;;;307.15;124.55;;;;;;;13.42;65.33;98713.84;301492;32;3234;-73
2023/04/14 00:06:12;;;;;;;306.60;124.00;;;;;;;13.37;65.18;98712.47;297515;32;4498;-73
2023/04/14 00:06:23;;;;;;;305.48;123.35;;;;;;;13.34;65.38;98712.66;300892;32;1299;-73
2023/04/14 00:06:33;;;;;;;307.43;125.87;;;;;;;13.21;65.57;98712.63;304712;32;5506;-73
2023/04/14 00:06:44;;;;;;;306.70;124.57;;;;;;;13.23;65.91;98718.63;300351;32;6063;-73
2023/04/14 00:06:57;;;;;;;306.90;124.10;;;;;;;13.32;65.74;98710.13;296906;33;906;-73
2023/04/14 00:07:07;;;;;;;302.45;120.72;;;;;;;13.38;65.40;98715.00;295685;33;1793;-73
2023/04/14 00:07:18;;;;;;;303.13;120.97;;;;;;;13.35;65.84;98709.94;294343;33;6355;-73
2023/04/14 00:07:28;;;;;;;305.53;122.97;;;;;;;13.34;65.58;98718.75;294685;33;5665;-73
2023/04/14 00:07:39;;;;;;;308.30;124.80;;;;;;;13.32;65.44;98718.88;296864;33;1429;-73
2023/04/14 00:07:49;;;;;;;309.83;124.83;;;;;;;13.32;65.64;98715.38;294950;33;6886;-73
2023/04/14 00:08:00;;;;;;;308.48;123.00;;;;;;;13.34;65.54;98707.41;292847;33;5359;-73
2023/04/14 00:08:11;;;;;;;305.83;121.55;;;;;;;13.38;65.25;98716.78;292414;33;5354;-73
2023/04/14 00:08:21;;;;;;;303.97;119.33;;;;;;;13.39;65.31;98719.28;291012;34;883;-72
2023/04/14 00:08:31;;;;;;;302.42;119.25;;;;;;;13.33;65.71;98717.06;289600;33;7016;-72
2023/04/14 00:10:48;;;;;;;300.64;115.42;;;;;;;13.27;66.02;98714.84;2487508;27;20267;-72
2023/04/14 00:10:58;;;;;;;306.60;120.57;;;;;;;13.22;66.09;98711.69;350474;28;1322;-72
2023/04/14 00:11:09;;;;;;;305.52;118.70;;;;;;;13.18;66.27;98712.81;348973;28;2886;-73
2023/04/14 00:11:20;;;;;;;305.37;121.57;;;;;;;13.21;66.09;98713.47;349354;28;856;-72
2023/04/14 00:11:30;;;;;;;302.98;121.63;;;;;;;13.26;66.21;98711.38;348786;28;1567;-72
2023/04/14 00:11:40;;;;;;;305.23;123.27;;;;;;;13.34;65.77;98716.13;344829;28;4529;-72
2023/04/14 00:11:51;;;;;;;306.87;123.90;;;;;;;13.37;65.78;98721.19;347124;28;4769;-72
2023/04/14 00:12:01;;;;;;;311.60;125.60;;;;;;;13.39;65.75;98718.47;347547;28;832;-72
2023/04/14 00:12:12;;;;;;;310.15;124.88;;;;;;;13.39;65.62;98726.34;347836;28;1871;-72
2023/04/14 00:12:22;;;;;;;306.20;121.40;;;;;;;13.43;65.76;98727.81;347129;28;4868;-72
2023/04/14 00:12:32;;;;;;;303.10;119.68;;;;;;;13.46;65.54;98717.06;347053;28;2728;-72
2023/04/14 00:12:43;;;;;;;303.60;121.33;;;;;;;13.47;65.50;98719.59;345029;28;4727;-72
2023/04/14 00:12:56;;;;;;;305.42;123.30;;;;;;;13.52;65.42;98728.03;346040;28;4663;-73
2023/04/14 00:13:06;;;;;;;304.08;120.80;;;;;;;13.55;65.24;98722.56;347796;28;1694;-73
2023/04/14 00:13:17;;;;;;;303.63;121.30;;;;;;;13.56;65.29;98719.00;348851;28;2924;-73
2023/04/14 00:13:27;;;;;;;302.10;121.90;;;;;;;13.53;65.54;98724.44;349866;28;1238;-72
2023/04/14 00:13:37;;;;;;;302.97;124.30;;;;;;;13.53;65.29;98719.19;345334;28;2676;-72
2023/04/14 00:13:48;;;;;;;305.77;124.50;;;;;;;13.56;65.00;98719.00;345698;28;2914;-72
2023/04/14 00:14:01;;;;;;;307.35;123.32;;;;;;;13.57;65.21;98720.66;344907;28;813;-72
2023/04/14 00:14:12;;;;;;;309.63;123.75;;;;;;;13.59;65.22;98726.66;347288;28;1298;-72
2023/04/14 00:14:22;;;;;;;319.03;128.87;;;;;;;13.59;64.94;98724.03;347149;28;3123;-72
2023/04/14 00:14:32;;;;;;;315.83;127.53;;;;;;;13.61;64.89;98719.53;346238;28;1073;-72
2023/04/14 00:14:43;;;;;;;315.13;128.48;;;;;;;13.61;64.94;98726.56;344991;28;4254;-72
2023/04/14 00:14:53;;;;;;;307.03;125.33;;;;;;;13.58;65.09;98717.09;343706;28;2513;-72
2023/04/14 00:15:04;;;;;;;309.65;124.85;;;;;;;13.58;65.28;98724.97;340860;29;941;-72
2023/04/14 00:15:15;;;;;;;309.55;122.68;;;;;;;13.52;65.29;98722.75;344400;28;1055;-72
2023/04/14 00:15:25;;;;;;;309.43;124.73;;;;;;;13.44;65.28;98719.81;344838;28;3251;-72
2023/04/14 00:15:35;;;;;;;305.10;123.88;;;;;;;13.39;65.83;98719.28;344802;28;1336;-72
2023/04/14 00:15:46;;;;;;;305.33;124.57;;;;;;;13.38;65.75;98720.25;342951;28;4706;-72
2023/04/14 00:15:56;;;;;;;304.67;123.77;;;;;;;13.36;65.69;98719.50;343618;28;3197;-72
2023/04/14 00:16:07;;;;;;;308.27;126.68;;;;;;;13.35;65.86;98720.44;346130;28;1502;-73
2023/04/14 00:16:17;;;;;;;310.30;127.40;;;;;;;13.29;66.51;98724.31;344791;28;1326;-72
2023/04/14 00:16:30;;;;;;;311.17;127.97;;;;;;;13.34;66.23;98723.19;341654;28;5047;-72
2023/04/14 00:16:41;;;;;;;306.08;124.85;;;;;;;13.35;66.04;98719.59;342545;28;3673;-72
2023/04/14 00:16:52;;;;;;;305.10;124.00;;;;;;;13.33;66.13;98719.69;345152;28;5816;-72
2023/04/14 00:17:02;;;;;;;307.00;123.95;;;;;;;13.30;66.06;98717.28;344766;28;1287;-72
2023/04/14 00:17:13;;;;;;;311.03;125.57;;;;;;;13.27;66.13;98717.47;341187;28;1615;-72
2023/04/14 00:17:23;;;;;;;310.07;124.57;;;;;;;13.28;66.23;98713.91;341295;28;2899;-72
2023/04/14 00:17:33;;;;;;;308.30;125.43;;;;;;;13.29;66.07;98721.69;347664;28;1353;-72
2023/04/14 00:17:44;;;;;;;305.37;123.03;;;;;;;13.26;66.48;98719.25;343733;28;4256;-72
2023/04/14 00:17:54;;;;;;;306.15;121.75;;;;;;;13.24;66.38;98715.91;344684;28;985;-72
2023/04/14 00:18:05;;;;;;;309.47;121.27;;;;;;;13.19;66.56;98715.34;344351;28;1540;-72
2023/04/14 00:18:15;;;;;;;308.10;119.78;;;;;;;13.15;66.76;98713.00;344859;28;884;-72
2023/04/14 00:18:25;;;;;;;306.83;120.70;;;;;;;13.15;67.11;98719.09;345987;28;1318;-72
2023/04/14 00:18:36;;;;;;;301.77;117.93;;;;;;;13.15;66.84;98718.25;343402;28;2905;-72
2023/04/14 00:18:46;;;;;;;302.53;119.30;;;;;;;13.10;67.14;98715.91;337043;28;4543;-72
2023/04/14 00:18:57;;;;;;;301.60;119.97;;;;;;;13.00;67.29;98718.31;338102;29;3507;-72
2023/04/14 00:19:07;;;;;;;308.67;124.38;;;;;;;13.05;67.35;98719.78;338061;29;1283;-72
2023/04/14 00:19:18;;;;;;;307.88;123.32;;;;;;;13.09;67.22;98718.66;339254;29;2795;-72
2023/04/14 00:19:28;;;;;;;308.57;122.20;;;;;;;13.14;67.02;98716.56;339685;28;1717;-72
2023/04/14 00:19:39;;;;;;;302.43;118.17;;;;;;;13.17;67.11;98714.63;335762;29;3000;-72
2023/04/14 00:19:49;;;;;;;305.13;119.13;;;;;;;13.21;67.01;98715.25;336517;29;4755;-72
2023/04/14 00:19:59;;;;;;;306.30;118.60;;;;;;;13.21;67.08;98723.13;336644;29;1008;-72
2023/04/14 00:20:10;;;;;;;306.83;119.00;;;;;;;13.27;66.79;98722.72;339484;29;1030;-72
2023/04/14 00:20:20;;;;;;;305.00;119.47;;;;;;;13.30;66.77;98717.28;339478;29;3232;-72
2023/04/14 00:20:31;;;;;;;302.10;120.60;;;;;;;13.29;66.74;98718.22;338301;29;1130;-72
2023/04/14 00:20:41;;;;;;;302.20;122.60;;;;;;;13.31;66.62;98722.44;336012;29;4769;-72
2023/04/14 00:20:53;;;;;;;303.80;122.35;;;;;;;13.26;66.74;98718.41;338962;29;3426;-73
2023/04/14 00:21:03;;;;;;;308.55;123.45;;;;;;;13.26;66.80;98726.31;327088;30;1313;-72
2023/04/14 00:21:14;;;;;;;308.65;122.97;;;;;;;13.28;66.71;98721.78;328943;29;2948;-74
2023/04/14 00:21:25;;;;;;;309.70;124.20;;;;;;;13.28;66.84;98719.16;328026;30;2110;-72
2023/04/14 00:21:36;;;;;;;304.92;122.57;;;;;;;13.32;66.75;98721.50;325194;30;3140;-72
2023/04/14 00:21:46;;;;;;;304.23;121.93;;;;;;;13.31;66.64;98721.59;330224;29;4929;-72
2023/04/14 00:21:57;;;;;;;306.53;122.50;;;;;;;13.32;66.84;98715.38;327231;30;1590;-72
2023/04/14 00:22:07;;;;;;;307.27;122.65;;;;;;;13.32;66.85;98720.66;325649;30;906;-72
2023/04/14 00:22:17;;;;;;;307.17;122.63;;;;;;;13.25;66.90;98714.09;327725;30;3014;-72
2023/04/14 00:22:28;;;;;;;301.53;122.10;;;;;;;13.28;67.05;98719.16;329232;30;1125;-72
2023/04/14 00:22:38;;;;;;;304.15;123.93;;;;;;;13.27;66.68;98728.00;326420;29;4309;-72
2023/04/14 00:22:49;;;;;;;303.43;122.60;;;;;;;13.10;67.04;98705.41;325798;30;4917;-72
2023/04/14 00:22:59;;;;;;;306.50;122.10;;;;;;;13.10;67.29;98725.59;323951;30;2062;-72
2023/04/14 00:23:09;;;;;;;306.53;120.20;;;;;;;13.05;67.43;98717.16;323794;29;4441;-72
2023/04/14 00:23:20;;;;;;;307.75;122.22;;;;;;;12.96;67.73;98719.47;324037;30;1446;-72
2023/04/14 00:23:30;;;;;;;306.37;122.20;;;;;;;12.98;67.93;98722.84;323934;30;2769;-72
2023/04/14 00:23:41;;;;;;;307.30;123.97;;;;;;;12.99;67.95;98721.91;318758;30;4961;-72
2023/04/14 00:23:51;;;;;;;309.13;123.97;;;;;;;12.93;68.10;98719.66;321265;30;940;-72
2023/04/14 00:24:01;;;;;;;313.37;126.23;;;;;;;12.94;68.14;98715.25;322926;30;2703;-72
2023/04/14 00:24:12;;;;;;;310.37;123.07;;;;;;;13.04;67.97;98725.97;320423;30;4905;-72
2023/04/14 00:24:22;;;;;;;307.77;122.43;;;;;;;13.08;68.00;98714.34;319608;30;1339;-72
2023/04/14 00:24:39;;;;;;;302.50;119.70;;;;;;;13.03;67.92;98719.03;316729;30;4670;-72
2023/04/14 00:24:49;;;;;;;304.33;120.88;;;;;;;12.93;68.18;98718.81;315169;31;840;-72
2023/04/14 00:25:00;;;;;;;310.97;123.43;;;;;;;12.98;67.84;98719.38;312191;31;2303;-72
2023/04/14 00:25:10;;;;;;;310.33;123.15;;;;;;;12.94;68.15;98726.59;311114;31;4995;-72
2023/04/14 00:25:21;;;;;;;308.67;122.47;;;;;;;12.95;67.95;98723.03;313265;31;842;-72
2023/04/14 00:25:31;;;;;;;304.90;122.30;;;;;;;12.94;68.26;98721.34;315202;31;3431;-73
2023/04/14 00:25:41;;;;;;;306.42;122.68;;;;;;;12.99;68.25;98718.44;311612;31;4601;-72
2023/04/14 00:25:52;;;;;;;305.33;123.33;;;;;;;13.05;68.16;98722.41;312927;31;1335;-72
2023/04/14 00:26:02;;;;;;;308.50;123.03;;;;;;;12.98;67.90;98728.09;306374;32;1370;-72
2023/04/14 00:26:13;;;;;;;307.37;121.60;;;;;;;12.98;67.88;98720.22;309272;31;3565;-72
2023/04/14 00:26:23;;;;;;;306.90;121.53;;;;;;;12.99;68.12;98719.28;311978;31;2650;-72
2023/04/14 00:26:34;;;;;;;303.73;120.70;;;;;;;12.99;68.14;98719.28;310154;31;4651;-72
2023/04/14 00:26:44;;;;;;;304.85;121.80;;;;;;;12.98;68.03;98717.59;310879;31;4658;-72
2023/04/14 00:26:55;;;;;;;307.77;122.53;;;;;;;12.96;67.79;98718.63;311182;31;2838;-72
2023/04/14 00:27:06;;;;;;;308.42;122.00;;;;;;;12.89;67.93;98727.84;313544;31;1927;-73
2023/04/14 00:27:16;;;;;;;307.43;122.67;;;;;;;12.88;68.01;98716.50;311562;31;4385;-73
2023/04/14 00:27:27;;;;;;;303.60;122.37;;;;;;;12.87;67.91;98720.06;308520;31;4108;-73
2023/04/14 00:27:37;;;;;;;305.35;124.25;;;;;;;12.91;68.05;98725.97;305893;31;5208;-73
2023/04/14 00:27:48;;;;;;;307.02;123.70;;;;;;;12.93;68.03;98719.66;308311;31;5056;-73
2023/04/14 00:27:58;;;;;;;313.47;125.77;;;;;;;12.98;68.03;98724.63;307216;31;4746;-72
2023/04/14 00:28:08;;;;;;;310.77;124.77;;;;;;;12.97;67.81;98721.16;307294;31;4326;-72
2023/04/14 00:28:19;;;;;;;307.27;122.72;;;;;;;12.90;68.06;98724.28;308893;31;1562;-74
2023/04/14 00:28:30;;;;;;;300.52;119.63;;;;;;;12.89;68.14;98719.97;304255;32;4831;-72
2023/04/14 00:28:40;;;;;;;303.17;120.47;;;;;;;12.88;68.11;98721.75;299992;32;5183;-72
2023/04/14 00:28:51;;;;;;;307.02;121.90;;;;;;;12.91;68.19;98726.81;295969;33;1334;-72
2023/04/14 00:29:01;;;;;;;308.97;122.07;;;;;;;12.88;68.13;98724.38;295767;33;3412;-72
2023/04/14 00:29:11;;;;;;;308.65;121.75;;;;;;;12.88;68.15;98726.16;292100;33;5053;-72
2023/04/14 00:29:22;;;;;;;307.07;122.10;;;;;;;12.87;67.97;98724.47;292529;33;2105;-72
2023/04/14 00:29:32;;;;;;;307.23;124.40;;;;;;;12.93;68.35;98726.72;287970;34;4392;-73
2023/04/14 00:29:43;;;;;;;305.33;124.03;;;;;;;12.94;67.91;98725.75;287345;34;8219;-73
2023/04/14 00:29:53;;;;;;;310.53;125.13;;;;;;;12.94;67.96;98731.84;286500;33;6582;-72
2023/04/14 00:30:04;;;;;;;309.88;121.18;;;;;;;12.95;67.73;98728.28;287090;34;4227;-72
2023/04/14 00:30:14;;;;;;;309.38;119.05;;;;;;;12.99;67.87;98727.16;287072;34;6966;-72
2023/04/14 00:30:25;;;;;;;303.30;117.67;;;;;;;13.03;67.91;98729.56;284793;34;5814;-72
2023/04/14 00:30:35;;;;;;;302.10;118.28;;;;;;;12.98;68.02;98733.34;284029;34;4753;-72
2023/04/14 00:30:45;;;;;;;302.17;118.87;;;;;;;12.90;67.87;98727.75;282290;34;6602;-72
2023/04/14 00:30:56;;;;;;;306.87;120.33;;;;;;;12.92;68.01;98725.88;282701;34;4548;-73
2023/04/14 00:31:07;;;;;;;307.48;121.35;;;;;;;12.93;67.90;98735.44;284419;34;2489;-73
2023/04/14 00:31:17;;;;;;;306.73;122.13;;;;;;;12.89;68.05;98733.94;280557;35;2639;-73
2023/04/14 00:31:27;;;;;;;302.07;118.70;;;;;;;12.87;68.13;98727.09;279158;34;7245;-73
2023/04/14 00:31:38;;;;;;;302.42;119.45;;;;;;;12.82;67.99;98722.13;281803;34;14831;-73
2023/04/14 00:31:48;;;;;;;305.50;119.90;;;;;;;12.80;68.59;98731.06;286305;34;1476;-73
2023/04/14 00:31:59;;;;;;;307.00;120.70;;;;;;;12.76;68.49;98722.53;285965;34;11039;-73
2023/04/14 00:32:09;;;;;;;305.90;119.30;;;;;;;12.73;68.51;98727.97;282940;34;9266;-73
2023/04/14 00:32:20;;;;;;;304.10;119.47;;;;;;;12.74;68.66;98719.16;284161;34;2567;-73
2023/04/14 00:32:31;;;;;;;304.35;120.32;;;;;;;12.75;68.81;98731.34;281177;34;10378;-73
2023/04/14 00:32:41;;;;;;;304.40;120.80;;;;;;;12.75;68.82;98722.63;282521;34;8099;-73
2023/04/14 00:34:20;;;;;;;297.53;111.79;;;;;;;12.79;68.73;98727.59;2489107;27;20474;-72
2023/04/14 00:34:30;;;;;;;299.97;114.10;;;;;;;12.73;68.67;98725.34;348036;28;4006;-72
2023/04/14 00:34:41;;;;;;;299.52;115.38;;;;;;;12.73;68.88;98722.72;346906;28;2951;-72
2023/04/14 00:34:51;;;;;;;303.88;116.00;;;;;;;12.76;68.85;98725.16;346173;28;1054;-72
2023/04/14 00:35:02;;;;;;;304.23;117.97;;;;;;;12.71;68.65;98727.22;345846;28;1864;-72
2023/04/14 00:35:12;;;;;;;304.38;117.20;;;;;;;12.68;68.87;98724.81;347588;28;1229;-72
2023/04/14 00:35:23;;;;;;;301.00;116.70;;;;;;;12.73;69.03;98722.72;347589;28;821;-72
2023/04/14 00:35:33;;;;;;;301.80;116.65;;;;;;;12.72;68.79;98725.44;345895;28;4089;-73
2023/04/14 00:35:44;;;;;;;302.80;116.97;;;;;;;12.70;68.86;98722.91;345263;28;4716;-73
2023/04/14 00:35:54;;;;;;;306.80;119.75;;;;;;;12.63;69.08;98725.09;346083;28;1000;-73
2023/04/14 00:36:05;;;;;;;307.03;119.73;;;;;;;12.63;69.29;98724.25;344823;28;1522;-72
2023/04/14 00:36:15;;;;;;;305.75;118.88;;;;;;;12.65;69.23;98722.38;345042;28;5046;-72
2023/04/14 00:36:26;;;;;;;301.70;116.57;;;;;;;12.58;69.18;98713.19;344131;28;3901;-73
2023/04/14 00:36:36;;;;;;;301.83;117.88;;;;;;;12.56;69.23;98721.16;341298;28;4228;-72
2023/04/14 00:36:46;;;;;;;301.43;117.60;;;;;;;12.54;69.22;98719.59;342122;28;3138;-72
2023/04/14 00:36:57;;;;;;;305.17;118.53;;;;;;;12.52;69.39;98727.56;340902;29;1024;-72
2023/04/14 00:37:07;;;;;;;304.23;115.90;;;;;;;12.45;69.33;98720.19;340621;29;3209;-72
2023/04/14 00:37:18;;;;;;;303.42;115.45;;;;;;;12.45;69.52;98717.56;342719;28;1332;-72
2023/04/14 00:37:29;;;;;;;300.63;115.43;;;;;;;12.43;69.57;98722.06;341260;28;4501;-72
2023/04/14 00:37:40;;;;;;;301.70;117.55;;;;;;;12.43;69.77;98719.44;342787;28;3009;-72
2023/04/14 00:37:55;;;;;;;306.13;119.87;;;;;;;12.50;69.74;98720.75;344750;28;1205;-72
2023/04/14 00:38:05;;;;;;;308.02;118.78;;;;;;;12.60;69.23;98727.06;342233;28;3250;-72
2023/04/14 00:38:16;;;;;;;309.25;118.03;;;;;;;12.62;69.17;98719.94;344855;28;1805;-72
2023/04/14 00:38:26;;;;;;;304.87;117.47;;;;;;;12.64;69.16;98711.03;344494;28;2911;-72
2023/04/14 00:38:37;;;;;;;305.00;119.43;;;;;;;12.67;69.10;98723.13;342614;28;4829;-72
2023/04/14 00:38:47;;;;;;;306.13;120.73;;;;;;;12.66;69.21;98718.81;342788;28;5205;-72
2023/04/14 00:38:59;;;;;;;310.15;121.95;;;;;;;12.70;69.05;98722.91;342058;28;1377;-72
2023/04/14 00:39:09;;;;;;;310.63;120.90;;;;;;;12.70;68.92;98717.66;341648;28;5214;-72
2023/04/14 00:39:20;;;;;;;307.08;119.45;;;;;;;12.65;68.88;98720.59;342001;28;1692;-72
2023/04/14 00:39:30;;;;;;;305.77;120.40;;;;;;;12.59;68.91;98720.97;339982;28;4234;-72
2023/04/14 00:39:40;;;;;;;303.23;118.78;;;;;;;12.48;69.26;98714.75;341793;28;4855;-72
2023/04/14 00:39:51;;;;;;;310.17;121.47;;;;;;;12.41;69.88;98716.91;342107;28;912;-72
2023/04/14 00:40:01;;;;;;;308.60;118.88;;;;;;;12.45;69.61;98721.03;343815;28;2687;-72
2023/04/14 00:40:12;;;;;;;311.17;118.07;;;;;;;12.50;69.56;98716.34;341070;28;1250;-72
2023/04/14 00:40:22;;;;;;;308.27;115.13;;;;;;;12.53;69.53;98715.28;343726;28;2525;-71
2023/04/14 00:40:32;;;;;;;309.93;116.57;;;;;;;12.58;69.30;98718.44;342507;28;4644;-72
2023/04/14 00:40:43;;;;;;;308.60;117.28;;;;;;;12.63;69.21;98721.63;343951;28;1252;-72
2023/04/14 00:40:53;;;;;;;307.27;116.67;;;;;;;12.68;69.22;98714.28;339515;29;1214;-72
2023/04/14 00:41:04;;;;;;;305.75;113.65;;;;;;;12.75;69.00;98720.00;339478;29;3073;-72
2023/04/14 00:41:14;;;;;;;303.70;113.90;;;;;;;12.78;68.81;98728.53;339983;28;2048;-72
2023/04/14 00:41:25;;;;;;;300.53;114.20;;;;;;;12.82;68.63;98719.50;336681;29;4547;-72
2023/04/14 00:41:36;;;;;;;303.35;116.65;;;;;;;12.84;68.58;98717.63;336635;29;3114;-72
2023/04/14 00:41:46;;;;;;;305.30;117.47;;;;;;;12.82;68.55;98716.88;335042;29;4729;-72
2023/04/14 00:41:56;;;;;;;304.83;116.40;;;;;;;12.79;68.49;98724.97;339375;29;1276;-72
2023/04/14 00:42:07;;;;;;;302.48;115.45;;;;;;;12.78;68.65;98731.16;339740;28;4077;-72
2023/04/14 00:42:17;;;;;;;303.23;114.23;;;;;;;12.72;68.93;98723.66;339382;29;1332;-72
2023/04/14 00:42:28;;;;;;;305.63;115.15;;;;;;;12.70;68.86;98719.44;332550;29;3586;-72
2023/04/14 00:42:45;;;;;;;308.07;116.53;;;;;;;12.76;68.90;98726.94;332479;29;2972;-72
2023/04/14 00:42:55;;;;;;;312.38;117.78;;;;;;;12.77;69.00;98721.59;333699;29;1861;-72
2023/04/14 00:43:06;;;;;;;310.00;114.50;;;;;;;12.77;68.91;98726.84;332897;29;2890;-72
2023/04/14 00:43:18;;;;;;;307.80;114.77;;;;;;;12.76;68.60;98727.78;337278;29;1919;-73
2023/04/14 00:43:28;;;;;;;303.90;113.43;;;;;;;12.72;68.79;98731.53;335017;29;4509;-72
2023/04/14 00:43:39;;;;;;;305.25;115.22;;;;;;;12.68;68.88;98722.16;335301;29;3101;-72
2023/04/14 00:43:55;;;;;;;306.67;118.07;;;;;;;12.68;69.02;98727.44;334525;29;3530;-72
2023/04/14 00:44:05;;;;;;;307.20;117.78;;;;;;;12.62;69.19;98722.56;336865;29;4562;-72
2023/04/14 00:44:15;;;;;;;307.30;118.53;;;;;;;12.56;69.31;98721.16;338533;28;2696;-73
2023/04/14 00:44:26;;;;;;;306.90;117.33;;;;;;;12.57;69.42;98722.00;328799;29;4534;-73
2023/04/14 00:44:37;;;;;;;312.33;116.18;;;;;;;12.60;69.35;98721.81;327839;30;5117;-72
2023/04/14 00:44:47;;;;;;;309.25;115.07;;;;;;;12.59;69.35;98725.38;330499;29;4692;-72
2023/04/14 00:44:58;;;;;;;312.43;116.37;;;;;;;12.62;69.22;98726.03;330428;29;3180;-72
2023/04/14 00:45:09;;;;;;;306.40;118.90;;;;;;;12.61;69.09;98726.13;328740;29;3160;-72
2023/04/14 00:45:19;;;;;;;306.73;118.20;;;;;;;12.58;69.15;98723.69;327124;30;1283;-72
2023/04/14 00:45:30;;;;;;;303.13;117.03;;;;;;;12.58;69.10;98721.06;324395;30;3144;-73
2023/04/14 00:45:43;;;;;;;303.23;116.57;;;;;;;12.60;69.19;98727.06;324405;30;1313;-73
2023/04/14 00:45:53;;;;;;;303.88;117.47;;;;;;;12.58;69.37;98718.44;322831;30;3682;-72
2023/04/14 00:46:04;;;;;;;304.95;116.22;;;;;;;12.61;69.27;98723.50;324358;30;1366;-72
2023/04/14 00:46:15;;;;;;;304.42;116.18;;;;;;;12.63;68.90;98721.63;324677;30;4495;-72
2023/04/14 00:46:26;;;;;;;301.38;114.57;;;;;;;12.65;69.04;98725.00;323068;30;2497;-72
2023/04/14 00:46:37;;;;;;;302.97;118.00;;;;;;;12.62;68.99;98717.31;320352;30;4655;-72
2023/04/14 00:46:48;;;;;;;301.73;117.18;;;;;;;12.59;69.00;98726.22;321397;30;3706;-73
2023/04/14 00:46:59;;;;;;;303.50;118.83;;;;;;;12.63;69.23;98726.88;319535;30;5050;-73
2023/04/14 00:47:09;;;;;;;303.85;118.47;;;;;;;12.63;69.31;98726.88;317057;30;3337;-72
2023/04/14 00:47:21;;;;;;;307.93;119.87;;;;;;;12.56;69.26;98720.34;315734;31;2942;-72
2023/04/14 00:47:32;;;;;;;307.00;117.85;;;;;;;12.50;69.51;98723.38;311503;31;2961;-72
2023/04/14 00:47:46;;;;;;;309.50;114.07;;;;;;;12.44;69.45;98726.38;313366;31;2179;-72
2023/04/14 00:47:56;;;;;;;308.48;113.32;;;;;;;12.32;69.70;98722.72;311867;31;4903;-72
2023/04/14 00:48:07;;;;;;;307.38;113.32;;;;;;;12.32;69.83;98722.72;315969;31;1267;-72
2023/04/14 00:48:17;;;;;;;301.80;114.40;;;;;;;12.31;70.18;98727.13;311342;31;4027;-72
2023/04/14 00:48:27;;;;;;;301.27;113.95;;;;;;;12.33;69.95;98727.88;311136;31;4882;-72
2023/04/14 00:48:38;;;;;;;299.87;113.77;;;;;;;12.35;69.81;98726.94;309112;31;2451;-72
2023/04/14 00:48:48;;;;;;;298.83;113.28;;;;;;;12.37;69.87;98719.81;308354;31;3187;-72
2023/04/14 00:48:59;;;;;;;300.47;113.33;;;;;;;12.42;69.45;98723.00;306658;31;3177;-72
2023/04/14 00:49:09;;;;;;;301.90;113.97;;;;;;;12.44;69.21;98729.00;303408;31;4697;-72
2023/04/14 00:49:20;;;;;;;303.70;115.17;;;;;;;12.48;69.29;98725.25;309663;31;3615;-72
2023/04/14 00:49:30;;;;;;;303.20;115.90;;;;;;;12.49;69.17;98724.31;307408;31;5960;-73
2023/04/14 00:49:41;;;;;;;303.52;114.35;;;;;;;12.52;69.07;98729.34;307058;31;3170;-73
2023/04/14 00:49:51;;;;;;;303.07;114.00;;;;;;;12.57;69.07;98727.25;310584;31;2825;-73
2023/04/14 00:50:02;;;;;;;302.43;114.13;;;;;;;12.61;68.87;98723.50;307368;31;4749;-72
2023/04/14 00:50:14;;;;;;;302.05;115.88;;;;;;;12.64;68.70;98728.56;309825;31;2976;-73
2023/04/14 00:50:24;;;;;;;302.13;114.97;;;;;;;12.67;68.63;98728.38;307515;31;2726;-73
2023/04/14 00:50:35;;;;;;;302.15;115.03;;;;;;;12.68;68.66;98735.31;306349;32;1473;-73
2023/04/14 00:50:45;;;;;;;303.10;116.10;;;;;;;12.76;68.43;98737.44;301041;32;3914;-73
2023/04/14 00:50:56;;;;;;;301.77;116.00;;;;;;;12.77;68.32;98729.47;303015;32;4149;-73
2023/04/14 00:51:06;;;;;;;301.87;116.03;;;;;;;12.83;68.49;98731.69;302357;32;4194;-72
2023/04/14 00:51:16;;;;;;;303.13;116.22;;;;;;;12.85;67.99;98732.44;301222;32;4366;-72
2023/04/14 00:51:27;;;;;;;302.83;115.33;;;;;;;12.86;68.27;98728.88;295802;32;4504;-73
2023/04/14 00:51:37;;;;;;;302.70;115.10;;;;;;;12.87;68.10;98735.81;298475;33;2106;-73
2023/04/14 00:51:48;;;;;;;303.58;117.55;;;;;;;12.87;68.16;98740.22;298707;32;4140;-73
2023/04/14 00:51:58;;;;;;;302.33;116.97;;;;;;;12.82;67.93;98732.66;298316;32;4348;-73
2023/04/14 00:52:09;;;;;;;303.10;116.90;;;;;;;12.79;68.26;98742.50;295046;33;4792;-72
2023/04/14 00:52:21;;;;;;;301.57;114.53;;;;;;;12.76;68.08;98734.81;293021;33;2354;-72
2023/04/14 00:52:31;;;;;;;301.73;115.47;;;;;;;12.72;68.35;98726.28;294589;33;4703;-72
2023/04/14 00:52:41;;;;;;;301.90;116.23;;;;;;;12.72;68.15;98730.69;294062;32;3839;-72
2023/04/14 00:52:52;;;;;;;304.03;117.30;;;;;;;12.69;68.19;98734.34;296551;33;4336;-73